This is the latest recevied weather packets stored in our database for station/object WD7CGF. If no packets are shown the sender has not sent any weather packets the latest 10 day(s).
| Time | Temp. | Humidity | Pressure | Rain* | Wind** | Luminosity | Snow |
|---|---|---|---|---|---|---|---|
| 1787940513 | 21.67° C | 54% | 1014.5 hPa | 0 mm | - | - | - |
| 1787939926 | 22.22° C | 55% | 1014.6 hPa | 0 mm | - | - | - |
| 1787939322 | 21.67° C | 56% | 1014.6 hPa | 0 mm | - | - | - |
| 1787938713 | 21.67° C | 55% | 1015 hPa | 0 mm | - | - | - |
| 1787938127 | 21.11° C | 57% | 1015 hPa | 0 mm | - | - | - |
| 1787937522 | 20.56° C | 58% | 1015 hPa | 0 mm | - | - | - |
| 1787936915 | 20.56° C | 59% | 1015.1 hPa | 0 mm | - | - | - |
| 1787936328 | 20° C | 61% | 1015.1 hPa | 0 mm | - | - | - |
| 1787935720 | 20° C | 60% | 1015.1 hPa | 0 mm | - | - | - |
| 1787935112 | 19.44° C | 63% | 1014.5 hPa | 0 mm | - | - | - |
| 1787934511 | 18.89° C | 63% | 1014.7 hPa | 0 mm | - | - | - |
| 1787933925 | 18.33° C | 64% | 1014.7 hPa | 0 mm | - | - | - |
| 1787933320 | 18.33° C | 65% | 1014.6 hPa | 0 mm | - | - | - |
| 1787932713 | 17.78° C | 67% | 1014.8 hPa | 0 mm | - | - | - |
| 1787932127 | 17.22° C | 67% | 1014.8 hPa | 0 mm | - | - | - |
| 1787931520 | 17.22° C | 67% | 1014.8 hPa | 0 mm | - | - | - |
| 1787930912 | 16.67° C | 68% | 1014.8 hPa | 0 mm | - | - | - |
| 1787930327 | 16.67° C | 69% | 1014.8 hPa | 0 mm | - | - | - |
| 1787929724 | 16.67° C | 70% | 1014.8 hPa | 0 mm | - | - | - |
| 1787929121 | 16.11° C | 71% | 1014.9 hPa | 0 mm | - | - | - |
| 1787928514 | 16.11° C | 73% | 1014.9 hPa | 0 mm | - | - | - |
| 1787927927 | 15° C | 78% | 1015.1 hPa | 0 mm | - | - | - |
| 1787927319 | 13.33° C | 84% | 1015.3 hPa | 0 mm | - | - | - |
| 1787926714 | 12.22° C | 85% | 1015.3 hPa | 0 mm | - | - | - |
| 1787926126 | 11.67° C | 85% | 1015.3 hPa | 0 mm | - | - | - |
* Rain latest hour (hover to see other rain measurements)
** Current wind speed in m/s (hover to see current wind gust speed)